Time;durP1;ratioP1;P1;durP2;ratioP2;P2;SDS_P1;SDS_P2;PMS_P1;PMS_P2;Temp;Humidity;BMP_temperature;BMP_pressure;BME280_temperature;BME280_humidity;BME280_pressure;Samples;Min_cycle;Max_cycle;Signal;HPM_P1;HPM_P2
2021/05/28 00:01:19;;;;;;;5.45;2.80;;;;;;;;;;4975391;28;20031;-85
2021/05/28 00:03:45;;;;;;;5.13;2.85;;;;;;;;;;4975098;28;20035;-86
2021/05/28 00:06:10;;;;;;;4.65;3.30;;;;;;;;;;4991572;28;20477;-86
2021/05/28 00:08:38;;;;;;;4.55;2.63;;;;;;;;;;4991135;28;20041;-86
2021/05/28 00:11:04;;;;;;;4.85;2.78;;;;;;;;;;4991467;28;20027;-86
2021/05/28 00:13:30;;;;;;;5.72;2.55;;;;;;;;;;4959186;28;20031;-86
2021/05/28 00:15:56;;;;;;;5.43;2.85;;;;;;;;;;4975029;28;20492;-86
2021/05/28 00:18:23;;;;;;;4.32;2.50;;;;;;;;;;4991109;28;20053;-86
2021/05/28 00:20:51;;;;;;;4.20;2.20;;;;;;;;;;4974787;28;20027;-86
2021/05/28 00:23:16;;;;;;;5.10;2.60;;;;;;;;;;4974800;28;20039;-86
2021/05/28 00:25:43;;;;;;;4.18;2.38;;;;;;;;;;4981322;28;20074;-86
2021/05/28 00:28:09;;;;;;;5.65;3.03;;;;;;;;;;5007141;28;20047;-86
2021/05/28 00:30:36;;;;;;;6.93;3.88;;;;;;;;;;4990999;28;20030;-86
2021/05/28 00:33:03;;;;;;;5.75;2.92;;;;;;;;;;4990697;28;20035;-86
2021/05/28 00:35:29;;;;;;;5.05;2.83;;;;;;;;;;5007093;28;20027;-86
2021/05/28 00:37:54;;;;;;;4.80;2.45;;;;;;;;;;4974413;28;20057;-86
2021/05/28 00:40:22;;;;;;;5.28;2.65;;;;;;;;;;4990007;28;20046;-86
2021/05/28 00:42:50;;;;;;;4.68;3.00;;;;;;;;;;5008590;28;20134;-86
2021/05/28 00:45:16;;;;;;;4.13;2.20;;;;;;;;;;4993761;28;20048;-85
2021/05/28 00:47:42;;;;;;;4.68;2.40;;;;;;;;;;4977881;28;20125;-86
2021/05/28 00:50:08;;;;;;;3.80;2.35;;;;;;;;;;4993435;28;20027;-86
2021/05/28 00:52:34;;;;;;;6.07;2.42;;;;;;;;;;4977728;28;20026;-86
2021/05/28 00:55:00;;;;;;;4.38;2.50;;;;;;;;;;4993631;28;20027;-86
2021/05/28 00:57:29;;;;;;;4.30;2.33;;;;;;;;;;4993710;28;20041;-85
2021/05/28 00:59:57;;;;;;;3.53;2.35;;;;;;;;;;4977478;28;20507;-85
2021/05/28 01:02:25;;;;;;;6.30;2.75;;;;;;;;;;4978009;28;20049;-86
2021/05/28 01:04:53;;;;;;;5.15;2.92;;;;;;;;;;4977344;28;20476;-86
2021/05/28 01:07:19;;;;;;;4.40;2.65;;;;;;;;;;4977183;28;20038;-86
2021/05/28 01:09:45;;;;;;;4.90;2.38;;;;;;;;;;4977227;28;20057;-86
2021/05/28 01:12:10;;;;;;;5.55;2.88;;;;;;;;;;4977273;28;20037;-86
2021/05/28 01:14:37;;;;;;;4.80;2.42;;;;;;;;;;4977198;28;20030;-86
2021/05/28 01:17:03;;;;;;;5.18;2.65;;;;;;;;;;4976884;28;20042;-87
2021/05/28 01:19:28;;;;;;;5.10;3.42;;;;;;;;;;4976909;28;20029;-86
2021/05/28 01:21:55;;;;;;;4.20;2.83;;;;;;;;;;4976524;28;20113;-86
2021/05/28 01:24:22;;;;;;;4.30;2.72;;;;;;;;;;4976763;28;20389;-86
2021/05/28 01:26:47;;;;;;;5.13;2.65;;;;;;;;;;4974113;28;20118;-86
2021/05/28 01:29:14;;;;;;;4.53;2.67;;;;;;;;;;4973828;28;20109;-86
2021/05/28 01:31:41;;;;;;;4.15;2.40;;;;;;;;;;4973541;28;20113;-86
2021/05/28 01:34:06;;;;;;;6.15;3.13;;;;;;;;;;4976740;28;20137;-86
2021/05/28 01:36:33;;;;;;;3.97;1.77;;;;;;;;;;4992668;28;20042;-86
2021/05/28 01:38:59;;;;;;;4.38;2.70;;;;;;;;;;4976591;28;20030;-86
2021/05/28 01:41:29;;;;;;;4.70;2.60;;;;;;;;;;4976748;28;20029;-86
2021/05/28 01:43:56;;;;;;;4.20;2.55;;;;;;;;;;4976566;28;20034;-86
2021/05/28 01:46:24;;;;;;;5.30;2.60;;;;;;;;;;4976741;28;20568;-86
2021/05/28 01:48:51;;;;;;;5.32;2.25;;;;;;;;;;4972812;28;20019;-86
2021/05/28 01:51:17;;;;;;;4.93;2.53;;;;;;;;;;4989359;28;20066;-86
2021/05/28 01:53:43;;;;;;;5.32;2.17;;;;;;;;;;4973235;28;20042;-86
2021/05/28 01:56:10;;;;;;;5.03;2.88;;;;;;;;;;4973510;28;20121;-86
2021/05/28 01:58:36;;;;;;;3.83;2.05;;;;;;;;;;4973096;28;20062;-85
2021/05/28 02:01:03;;;;;;;4.35;2.30;;;;;;;;;;4973253;28;20482;-85
2021/05/28 02:03:29;;;;;;;3.35;2.25;;;;;;;;;;4972743;28;20026;-86
2021/05/28 02:05:57;;;;;;;5.20;2.75;;;;;;;;;;4972942;28;20035;-86
2021/05/28 02:08:23;;;;;;;4.68;2.30;;;;;;;;;;4972935;28;20039;-85
2021/05/28 02:10:50;;;;;;;4.40;2.30;;;;;;;;;;4956825;28;20113;-85
2021/05/28 02:13:16;;;;;;;4.22;2.60;;;;;;;;;;4972587;28;20042;-85
2021/05/28 02:15:42;;;;;;;3.88;2.70;;;;;;;;;;4972844;28;20557;-86
2021/05/28 02:18:09;;;;;;;5.28;2.40;;;;;;;;;;4972619;28;20039;-85
2021/05/28 02:20:36;;;;;;;6.00;2.65;;;;;;;;;;4972558;28;20027;-85
2021/05/28 02:23:02;;;;;;;3.70;2.20;;;;;;;;;;4988958;28;20034;-85
2021/05/28 02:25:29;;;;;;;4.35;2.17;;;;;;;;;;4993205;28;20026;-86
2021/05/28 02:27:54;;;;;;;4.28;2.40;;;;;;;;;;4977078;28;20042;-85
2021/05/28 02:30:20;;;;;;;3.92;2.50;;;;;;;;;;4972383;28;20034;-85
2021/05/28 02:32:46;;;;;;;3.78;2.13;;;;;;;;;;4971949;28;20035;-86
2021/05/28 02:35:12;;;;;;;4.55;2.55;;;;;;;;;;4972316;28;20129;-85
2021/05/28 02:37:40;;;;;;;4.32;2.38;;;;;;;;;;4988487;28;20035;-85
2021/05/28 02:40:06;;;;;;;4.32;2.42;;;;;;;;;;4972220;28;20234;-85
2021/05/28 02:42:33;;;;;;;4.15;2.60;;;;;;;;;;4972655;28;20073;-85
2021/05/28 02:45:00;;;;;;;4.35;2.38;;;;;;;;;;4972246;28;20027;-85
2021/05/28 02:47:26;;;;;;;4.15;2.30;;;;;;;;;;4972363;28;20382;-85
2021/05/28 02:49:52;;;;;;;5.70;2.20;;;;;;;;;;4975117;28;20088;-85
2021/05/28 02:52:18;;;;;;;3.35;1.90;;;;;;;;;;4975711;28;20117;-85
2021/05/28 02:54:45;;;;;;;3.97;2.13;;;;;;;;;;4975570;28;20022;-85
2021/05/28 02:57:11;;;;;;;4.38;2.05;;;;;;;;;;4991579;28;20109;-85
2021/05/28 02:59:36;;;;;;;4.13;2.72;;;;;;;;;;4959525;28;20129;-85
2021/05/28 03:02:02;;;;;;;4.60;2.22;;;;;;;;;;4975131;28;20128;-84
2021/05/28 03:04:28;;;;;;;6.20;2.80;;;;;;;;;;4975247;28;20041;-85
2021/05/28 03:06:54;;;;;;;4.82;2.42;;;;;;;;;;4975523;28;20531;-86
2021/05/28 03:09:23;;;;;;;4.03;2.63;;;;;;;;;;4975579;28;20022;-86
2021/05/28 03:11:49;;;;;;;3.50;1.95;;;;;;;;;;4991588;28;20060;-85
2021/05/28 03:14:17;;;;;;;4.57;2.60;;;;;;;;;;4975258;28;20026;-86
2021/05/28 03:16:42;;;;;;;3.42;2.40;;;;;;;;;;4991470;28;20074;-85
2021/05/28 03:19:20;;;;;;;4.22;2.13;;;;;;;;;;4975281;28;20053;-85
2021/05/28 03:24:31;;;;;;;5.03;2.22;;;;;;;;;;4988174;28;20023;-86
2021/05/28 03:26:56;;;;;;;4.28;2.20;;;;;;;;;;4994572;28;20411;-85
2021/05/28 03:29:21;;;;;;;4.55;2.42;;;;;;;;;;4994578;28;20038;-85
2021/05/28 03:31:47;;;;;;;5.05;1.95;;;;;;;;;;5010545;28;20052;-85
2021/05/28 03:34:12;;;;;;;3.65;2.25;;;;;;;;;;4994545;28;20042;-85
2021/05/28 03:36:39;;;;;;;4.50;2.38;;;;;;;;;;5010821;28;20122;-85
2021/05/28 03:39:05;;;;;;;4.38;2.13;;;;;;;;;;4994491;28;20022;-86
2021/05/28 03:41:30;;;;;;;4.13;2.17;;;;;;;;;;4987070;28;20027;-86
2021/05/28 03:43:57;;;;;;;4.07;2.28;;;;;;;;;;4958706;28;20045;-86
2021/05/28 03:46:23;;;;;;;3.92;2.25;;;;;;;;;;4961627;28;20027;-85
2021/05/28 03:48:49;;;;;;;4.72;2.13;;;;;;;;;;4962489;28;20030;-85
2021/05/28 03:51:15;;;;;;;3.47;2.55;;;;;;;;;;4962585;28;20035;-85
2021/05/28 03:53:42;;;;;;;4.05;1.90;;;;;;;;;;4994635;28;20034;-85
2021/05/28 03:56:07;;;;;;;3.40;1.65;;;;;;;;;;4978803;28;20073;-86
2021/05/28 03:58:33;;;;;;;3.92;1.90;;;;;;;;;;4994394;28;20062;-86
2021/05/28 04:00:59;;;;;;;4.40;2.15;;;;;;;;;;4978172;28;20093;-85
2021/05/28 04:03:25;;;;;;;5.00;2.42;;;;;;;;;;4978479;28;20030;-85
2021/05/28 04:05:50;;;;;;;4.00;2.22;;;;;;;;;;4978066;28;20411;-85
2021/05/28 04:08:15;;;;;;;4.95;2.65;;;;;;;;;;4994428;28;20428;-86
2021/05/28 04:10:42;;;;;;;5.30;2.25;;;;;;;;;;4994768;28;20042;-85
2021/05/28 04:13:08;;;;;;;4.47;2.03;;;;;;;;;;4978305;28;20031;-86
2021/05/28 04:15:34;;;;;;;4.63;2.42;;;;;;;;;;4977685;28;20117;-85
2021/05/28 04:18:00;;;;;;;3.95;2.35;;;;;;;;;;4978060;28;20126;-86
2021/05/28 04:20:27;;;;;;;3.60;1.92;;;;;;;;;;4978137;28;20026;-86
2021/05/28 04:22:52;;;;;;;5.82;1.88;;;;;;;;;;4978150;28;20117;-85
2021/05/28 04:25:19;;;;;;;4.50;2.15;;;;;;;;;;4977895;28;20026;-86
2021/05/28 04:27:45;;;;;;;2.83;1.98;;;;;;;;;;4978223;28;20058;-86
2021/05/28 04:30:11;;;;;;;4.57;2.22;;;;;;;;;;4993740;28;20057;-85
2021/05/28 04:32:38;;;;;;;4.57;2.10;;;;;;;;;;4994135;28;20380;-86
2021/05/28 04:35:04;;;;;;;3.95;2.22;;;;;;;;;;4977984;28;20045;-86
2021/05/28 04:37:30;;;;;;;3.00;2.00;;;;;;;;;;4994347;28;20109;-86
2021/05/28 04:39:56;;;;;;;3.95;2.20;;;;;;;;;;4990719;28;20046;-86
2021/05/28 04:42:21;;;;;;;3.25;2.20;;;;;;;;;;4990340;28;20126;-86
2021/05/28 04:44:47;;;;;;;3.33;2.03;;;;;;;;;;4989866;28;20126;-85
2021/05/28 04:47:14;;;;;;;4.20;2.25;;;;;;;;;;4990399;28;20041;-86
2021/05/28 04:49:41;;;;;;;3.30;1.83;;;;;;;;;;5009885;28;20084;-86
2021/05/28 04:52:06;;;;;;;4.97;2.03;;;;;;;;;;4977638;28;20030;-86
2021/05/28 04:54:32;;;;;;;3.13;2.13;;;;;;;;;;4993897;28;20403;-85
2021/05/28 04:56:59;;;;;;;6.13;2.45;;;;;;;;;;4976449;28;20026;-85
2021/05/28 04:59:25;;;;;;;3.70;2.00;;;;;;;;;;4976927;28;20034;-86
2021/05/28 05:01:51;;;;;;;3.72;1.73;;;;;;;;;;4977666;28;20024;-86
2021/05/28 05:04:16;;;;;;;3.45;1.83;;;;;;;;;;4977057;28;20404;-86
2021/05/28 05:06:41;;;;;;;3.05;2.08;;;;;;;;;;4976961;28;20034;-86
2021/05/28 05:09:08;;;;;;;3.17;1.90;;;;;;;;;;4993467;28;20066;-85
2021/05/28 05:11:34;;;;;;;3.38;1.83;;;;;;;;;;4977398;28;20117;-86
2021/05/28 05:14:01;;;;;;;5.50;1.85;;;;;;;;;;4976974;28;20030;-87
2021/05/28 05:16:26;;;;;;;3.75;2.35;;;;;;;;;;4976707;28;20041;-87
2021/05/28 05:18:52;;;;;;;4.03;2.05;;;;;;;;;;4975354;28;20026;-78
2021/05/28 05:21:19;;;;;;;5.50;1.63;;;;;;;;;;4989943;28;20467;-78
2021/05/28 05:23:44;;;;;;;4.38;2.05;;;;;;;;;;4990321;28;20042;-78
2021/05/28 05:26:09;;;;;;;6.38;2.13;;;;;;;;;;4991845;28;20404;-78
2021/05/28 05:28:35;;;;;;;7.05;2.13;;;;;;;;;;5009030;28;20023;-78
2021/05/28 05:31:00;;;;;;;8.55;2.65;;;;;;;;;;5008510;28;20479;-78
2021/05/28 05:33:26;;;;;;;4.57;1.83;;;;;;;;;;4992153;28;20405;-78
2021/05/28 05:35:51;;;;;;;7.00;2.88;;;;;;;;;;5008835;28;20042;-78
2021/05/28 05:38:19;;;;;;;8.85;3.30;;;;;;;;;;4992483;28;20086;-78
2021/05/28 05:40:44;;;;;;;6.75;3.17;;;;;;;;;;5008384;28;20117;-78
2021/05/28 05:43:10;;;;;;;5.80;3.15;;;;;;;;;;5008360;28;20515;-78
2021/05/28 05:45:35;;;;;;;4.68;2.58;;;;;;;;;;5008667;28;20043;-78
2021/05/28 05:48:02;;;;;;;7.53;3.50;;;;;;;;;;4975801;28;20030;-77
2021/05/28 05:50:27;;;;;;;6.20;3.35;;;;;;;;;;4992278;28;20053;-78
2021/05/28 05:52:53;;;;;;;8.25;3.63;;;;;;;;;;4992213;28;20097;-78
2021/05/28 05:55:19;;;;;;;5.63;3.22;;;;;;;;;;4975717;28;20058;-78
2021/05/28 05:57:46;;;;;;;6.15;3.72;;;;;;;;;;4992066;28;20066;-78
2021/05/28 06:00:12;;;;;;;7.43;3.28;;;;;;;;;;4991835;28;20034;-78
2021/05/28 06:02:37;;;;;;;10.15;3.85;;;;;;;;;;4992075;28;20043;-78
2021/05/28 06:05:03;;;;;;;6.85;3.70;;;;;;;;;;5008276;28;20523;-80
2021/05/28 06:07:29;;;;;;;8.02;4.15;;;;;;;;;;4991479;28;20436;-80
2021/05/28 06:09:54;;;;;;;8.20;3.90;;;;;;;;;;4991789;28;20038;-80
2021/05/28 06:12:20;;;;;;;9.82;4.55;;;;;;;;;;4975494;28;20481;-80
2021/05/28 06:14:45;;;;;;;9.20;3.72;;;;;;;;;;4991508;28;20439;-80
2021/05/28 06:17:10;;;;;;;10.05;4.47;;;;;;;;;;4991809;28;20111;-80
2021/05/28 06:19:36;;;;;;;8.93;4.03;;;;;;;;;;4990931;28;20290;-80
2021/05/28 06:22:01;;;;;;;8.65;3.67;;;;;;;;;;4991668;28;20520;-79
2021/05/28 06:24:27;;;;;;;9.88;4.07;;;;;;;;;;4991139;28;20060;-80
2021/05/28 06:26:52;;;;;;;7.53;4.38;;;;;;;;;;4971986;28;20362;-79
2021/05/28 06:29:18;;;;;;;14.88;6.30;;;;;;;;;;4987971;28;20117;-80
2021/05/28 06:31:44;;;;;;;10.43;5.60;;;;;;;;;;4971847;28;20397;-79
2021/05/28 06:34:10;;;;;;;8.07;4.50;;;;;;;;;;4970046;28;20065;-79
2021/05/28 06:36:35;;;;;;;9.45;4.15;;;;;;;;;;4986748;28;20064;-79
2021/05/28 06:39:02;;;;;;;5.55;3.28;;;;;;;;;;4972685;28;20408;-78
2021/05/28 06:41:28;;;;;;;6.55;3.17;;;;;;;;;;4991127;28;20050;-79
2021/05/28 06:43:53;;;;;;;6.20;2.80;;;;;;;;;;5007378;28;20580;-78
2021/05/28 06:46:19;;;;;;;5.15;3.05;;;;;;;;;;5023556;28;20037;-78
2021/05/28 06:48:44;;;;;;;8.45;4.00;;;;;;;;;;5020626;28;20452;-78
2021/05/28 06:51:10;;;;;;;4.63;3.03;;;;;;;;;;5020592;28;20038;-78
2021/05/28 06:53:36;;;;;;;7.80;3.30;;;;;;;;;;5020267;28;20066;-79
2021/05/28 06:56:01;;;;;;;7.50;3.83;;;;;;;;;;5023828;28;20061;-79
2021/05/28 06:58:28;;;;;;;5.93;3.08;;;;;;;;;;4991372;28;20042;-78
2021/05/28 07:00:54;;;;;;;8.00;3.42;;;;;;;;;;5023393;28;20547;-79
2021/05/28 07:03:19;;;;;;;5.35;2.80;;;;;;;;;;5021531;28;20074;-79
2021/05/28 07:05:44;;;;;;;6.50;3.33;;;;;;;;;;5023752;28;20042;-78
2021/05/28 07:08:10;;;;;;;6.93;3.20;;;;;;;;;;5023652;28;20430;-79
2021/05/28 07:10:36;;;;;;;4.60;2.63;;;;;;;;;;5023544;28;20392;-81
2021/05/28 07:13:01;;;;;;;7.13;4.07;;;;;;;;;;5023405;28;20121;-81
2021/05/28 07:15:26;;;;;;;6.50;3.85;;;;;;;;;;5023186;28;20069;-81
2021/05/28 07:17:52;;;;;;;7.93;3.75;;;;;;;;;;5007648;28;20122;-82
2021/05/28 07:20:18;;;;;;;6.47;3.90;;;;;;;;;;5007892;28;20041;-82
2021/05/28 07:22:44;;;;;;;6.10;3.35;;;;;;;;;;5017724;28;20030;-81
2021/05/28 07:25:10;;;;;;;7.18;3.42;;;;;;;;;;4997532;28;20527;-81
2021/05/28 07:27:35;;;;;;;5.18;3.00;;;;;;;;;;4978146;28;20023;-81
2021/05/28 07:30:03;;;;;;;5.90;3.13;;;;;;;;;;5013537;28;20407;-81
2021/05/28 07:32:29;;;;;;;7.65;3.10;;;;;;;;;;4998322;28;20110;-82
2021/05/28 07:34:54;;;;;;;5.30;3.13;;;;;;;;;;4994179;28;20097;-81
2021/05/28 07:37:20;;;;;;;4.93;2.75;;;;;;;;;;4981174;28;20030;-81
2021/05/28 07:39:45;;;;;;;4.47;2.45;;;;;;;;;;4997543;28;20022;-82
2021/05/28 07:42:15;;;;;;;6.05;2.70;;;;;;;;;;4984574;28;20048;-82
2021/05/28 07:44:45;;;;;;;6.20;2.30;;;;;;;;;;4983909;28;20027;-81
2021/05/28 07:47:13;;;;;;;6.80;2.35;;;;;;;;;;4978114;28;20121;-82
2021/05/28 07:49:39;;;;;;;6.15;2.33;;;;;;;;;;4961167;28;20026;-83
2021/05/28 07:52:05;;;;;;;5.43;2.33;;;;;;;;;;5010521;28;20030;-81
2021/05/28 07:54:30;;;;;;;6.47;1.98;;;;;;;;;;5013553;28;20018;-81
2021/05/28 07:56:56;;;;;;;5.20;2.15;;;;;;;;;;4997525;28;20096;-81
2021/05/28 07:59:21;;;;;;;5.68;2.20;;;;;;;;;;4997025;28;20452;-83
2021/05/28 08:01:47;;;;;;;6.22;2.20;;;;;;;;;;4981917;28;20081;-81
2021/05/28 08:04:12;;;;;;;3.25;2.00;;;;;;;;;;4990485;28;20053;-81
2021/05/28 08:06:37;;;;;;;5.88;2.30;;;;;;;;;;4974394;28;20035;-81
2021/05/28 08:09:03;;;;;;;5.97;1.95;;;;;;;;;;4993921;28;20381;-81
2021/05/28 08:11:29;;;;;;;6.00;1.83;;;;;;;;;;4977818;28;20046;-82
2021/05/28 08:13:54;;;;;;;5.38;1.98;;;;;;;;;;5010126;28;20035;-81
2021/05/28 08:16:19;;;;;;;5.75;2.03;;;;;;;;;;5010008;28;20398;-81
2021/05/28 08:18:45;;;;;;;5.95;2.00;;;;;;;;;;5010108;28;20370;-80
2021/05/28 08:21:11;;;;;;;7.65;2.63;;;;;;;;;;4993185;28;20026;-81
2021/05/28 08:23:37;;;;;;;5.35;2.25;;;;;;;;;;5010320;28;20042;-81
2021/05/28 08:26:03;;;;;;;4.88;1.75;;;;;;;;;;5013296;28;20519;-81
2021/05/28 08:28:30;;;;;;;6.38;1.90;;;;;;;;;;5010369;28;20030;-78
2021/05/28 08:30:55;;;;;;;3.25;1.75;;;;;;;;;;5026120;28;20023;-78
2021/05/28 08:33:20;;;;;;;3.03;1.70;;;;;;;;;;5025670;28;20069;-80
2021/05/28 08:35:46;;;;;;;4.30;1.65;;;;;;;;;;5026072;28;20038;-81
2021/05/28 08:38:11;;;;;;;7.82;1.92;;;;;;;;;;5026604;28;20034;-83
2021/05/28 08:40:38;;;;;;;5.30;1.80;;;;;;;;;;5009513;28;20065;-82
2021/05/28 08:43:05;;;;;;;4.50;1.40;;;;;;;;;;4976869;28;20030;-81
2021/05/28 08:45:38;;;;;;;8.45;1.63;;;;;;;;;;4992628;28;20031;-81
2021/05/28 08:48:04;;;;;;;6.30;1.17;;;;;;;;;;5009593;28;20113;-81
2021/05/28 08:50:29;;;;;;;4.47;1.25;;;;;;;;;;4976333;28;20459;-81
2021/05/28 08:52:55;;;;;;;4.68;1.30;;;;;;;;;;4992226;28;20070;-79
2021/05/28 08:55:20;;;;;;;3.20;0.95;;;;;;;;;;4992630;28;20101;-79
2021/05/28 08:57:46;;;;;;;2.28;0.90;;;;;;;;;;4977022;28;20030;-79
2021/05/28 09:00:12;;;;;;;3.60;1.05;;;;;;;;;;4992552;28;20026;-80
2021/05/28 09:02:39;;;;;;;3.67;0.93;;;;;;;;;;4992700;28;20031;-79
2021/05/28 09:05:20;;;;;;;3.53;0.80;;;;;;;;;;4976030;28;20034;-80
2021/05/28 09:07:53;;;;;;;1.70;1.00;;;;;;;;;;4978085;28;20397;-79
2021/05/28 09:10:32;;;;;;;3.13;1.20;;;;;;;;;;4976885;28;20038;-79
2021/05/28 09:13:18;;;;;;;3.63;1.27;;;;;;;;;;4977169;28;20072;-78
2021/05/28 09:16:02;;;;;;;2.60;0.95;;;;;;;;;;4993272;28;20392;-79
2021/05/28 09:18:47;;;;;;;2.25;0.90;;;;;;;;;;4978102;28;20034;-79
2021/05/28 09:21:14;;;;;;;3.42;0.93;;;;;;;;;;4993353;28;20034;-79
2021/05/28 09:23:39;;;;;;;3.55;1.40;;;;;;;;;;4976300;28;20022;-79
2021/05/28 09:26:07;;;;;;;6.57;3.58;;;;;;;;;;4992298;28;20038;-79
2021/05/28 09:28:46;;;;;;;21.95;14.60;;;;;;;;;;4975916;28;20030;-79
2021/05/28 09:31:34;;;;;;;17.80;10.98;;;;;;;;;;4992055;28;20117;-79
2021/05/28 09:33:59;;;;;;;16.27;8.00;;;;;;;;;;5007850;28;20124;-79
2021/05/28 09:36:26;;;;;;;8.75;4.72;;;;;;;;;;4992612;28;20038;-79
2021/05/28 09:38:58;;;;;;;6.63;3.35;;;;;;;;;;4992352;28;20105;-79
2021/05/28 09:41:43;;;;;;;6.32;2.92;;;;;;;;;;5008397;28;20528;-79
2021/05/28 09:44:19;;;;;;;5.90;2.90;;;;;;;;;;5022977;28;20061;-79
2021/05/28 09:46:56;;;;;;;5.18;2.80;;;;;;;;;;5025356;28;20038;-79
2021/05/28 09:49:24;;;;;;;6.38;2.63;;;;;;;;;;5008355;28;20838;-79
2021/05/28 09:52:06;;;;;;;4.38;1.90;;;;;;;;;;5008317;28;20065;-79
2021/05/28 09:54:31;;;;;;;5.17;2.20;;;;;;;;;;5008433;28;20026;-79
2021/05/28 09:56:57;;;;;;;5.90;2.60;;;;;;;;;;5008235;28;20042;-79
2021/05/28 09:59:22;;;;;;;5.25;2.60;;;;;;;;;;4975434;28;20067;-78
2021/05/28 10:02:00;;;;;;;4.97;2.40;;;;;;;;;;4991418;28;20066;-79
2021/05/28 10:04:25;;;;;;;4.60;2.55;;;;;;;;;;5007713;28;20088;-78
2021/05/28 10:06:51;;;;;;;5.03;1.75;;;;;;;;;;5007702;28;20026;-78
2021/05/28 10:09:17;;;;;;;3.25;1.75;;;;;;;;;;4982295;28;20042;-78
2021/05/28 10:11:42;;;;;;;3.80;1.80;;;;;;;;;;4988859;28;20113;-79
2021/05/28 10:14:08;;;;;;;6.07;1.85;;;;;;;;;;4988098;28;20459;-78
2021/05/28 10:16:34;;;;;;;7.32;1.45;;;;;;;;;;4988120;28;20062;-79
2021/05/28 10:18:59;;;;;;;2.80;1.48;;;;;;;;;;4972145;28;20035;-78
2021/05/28 10:21:25;;;;;;;5.22;1.60;;;;;;;;;;4979631;28;20035;-79
2021/05/28 10:23:53;;;;;;;3.63;1.98;;;;;;;;;;4972307;28;20043;-79
2021/05/28 10:26:34;;;;;;;4.20;1.90;;;;;;;;;;4989705;28;20037;-79
2021/05/28 10:28:59;;;;;;;5.80;2.63;;;;;;;;;;5011056;28;20048;-78
2021/05/28 10:31:53;;;;;;;2.70;1.25;;;;;;;;;;5011031;28;20033;-78
2021/05/28 10:34:20;;;;;;;2.75;1.45;;;;;;;;;;5009773;28;20466;-78
2021/05/28 10:36:45;;;;;;;6.40;1.70;;;;;;;;;;5011234;28;20034;-79
2021/05/28 10:39:13;;;;;;;3.38;1.52;;;;;;;;;;5011138;28;20400;-79
2021/05/28 10:41:43;;;;;;;5.35;1.88;;;;;;;;;;4985998;28;20030;-79
2021/05/28 10:44:13;;;;;;;3.90;1.98;;;;;;;;;;4974951;28;20396;-78
2021/05/28 10:46:56;;;;;;;6.10;2.05;;;;;;;;;;4974781;28;20025;-81
2021/05/28 10:49:53;;;;;;;2.92;1.33;;;;;;;;;;4991865;28;20038;-78
2021/05/28 10:52:29;;;;;;;4.70;1.85;;;;;;;;;;4976271;28;20122;-79
2021/05/28 10:54:57;;;;;;;4.07;1.80;;;;;;;;;;4990393;28;20035;-79
2021/05/28 10:57:25;;;;;;;3.50;2.03;;;;;;;;;;4958921;28;20100;-79
2021/05/28 11:00:04;;;;;;;3.75;1.63;;;;;;;;;;4974390;28;20027;-79
2021/05/28 11:02:50;;;;;;;3.17;1.42;;;;;;;;;;4987979;28;20061;-79
2021/05/28 11:05:17;;;;;;;4.15;1.83;;;;;;;;;;4987518;28;20114;-79
2021/05/28 11:07:44;;;;;;;2.95;1.55;;;;;;;;;;4988080;28;20035;-79
2021/05/28 11:10:17;;;;;;;4.88;1.80;;;;;;;;;;4998608;28;20030;-79
2021/05/28 11:12:42;;;;;;;4.85;1.63;;;;;;;;;;4982953;28;20075;-79
2021/05/28 11:15:15;;;;;;;3.42;2.03;;;;;;;;;;4993134;28;20443;-78
2021/05/28 11:18:01;;;;;;;6.00;3.20;;;;;;;;;;4996600;28;20552;-79
2021/05/28 11:20:29;;;;;;;4.72;2.88;;;;;;;;;;4990677;28;20034;-79
2021/05/28 11:22:54;;;;;;;5.65;2.72;;;;;;;;;;4974482;28;20038;-78
2021/05/28 11:25:21;;;;;;;4.13;2.25;;;;;;;;;;4990920;28;20034;-78
2021/05/28 11:28:09;;;;;;;3.45;2.40;;;;;;;;;;4990642;28;20109;-78
2021/05/28 11:30:54;;;;;;;4.25;2.75;;;;;;;;;;4990118;28;20117;-79
2021/05/28 11:33:39;;;;;;;4.78;2.17;;;;;;;;;;4990688;28;20046;-79
2021/05/28 11:36:30;;;;;;;3.00;1.73;;;;;;;;;;5007246;28;20046;-78
2021/05/28 11:39:09;;;;;;;6.57;2.20;;;;;;;;;;5006798;28;20026;-79
2021/05/28 11:41:41;;;;;;;4.30;2.17;;;;;;;;;;5007060;28;20037;-78
2021/05/28 11:44:08;;;;;;;4.82;2.28;;;;;;;;;;4993297;28;20026;-79
2021/05/28 11:46:34;;;;;;;5.03;2.22;;;;;;;;;;5010037;28;20084;-78
2021/05/28 11:49:00;;;;;;;3.30;2.00;;;;;;;;;;4981210;28;20031;-79
2021/05/28 11:51:25;;;;;;;4.57;2.20;;;;;;;;;;4987072;28;20034;-79
2021/05/28 11:53:51;;;;;;;3.50;1.90;;;;;;;;;;4987600;28;20035;-78
2021/05/28 11:56:16;;;;;;;4.60;2.15;;;;;;;;;;4998669;28;20112;-79
2021/05/28 11:58:49;;;;;;;3.40;2.58;;;;;;;;;;5006556;28;20031;-79
2021/05/28 12:01:15;;;;;;;3.33;2.42;;;;;;;;;;4974051;28;20034;-79
2021/05/28 12:03:40;;;;;;;4.45;2.38;;;;;;;;;;4990336;28;20033;-79
2021/05/28 12:06:06;;;;;;;8.68;2.47;;;;;;;;;;5007917;28;20047;-79
2021/05/28 12:08:31;;;;;;;4.50;2.20;;;;;;;;;;4993916;28;20026;-79
2021/05/28 12:11:03;;;;;;;5.07;2.30;;;;;;;;;;5010415;28;20061;-78
2021/05/28 12:13:38;;;;;;;4.30;2.15;;;;;;;;;;4993196;28;20510;-79
2021/05/28 12:16:10;;;;;;;3.72;2.28;;;;;;;;;;4995611;28;20029;-79
2021/05/28 12:18:43;;;;;;;4.05;2.35;;;;;;;;;;5013534;28;20045;-79
2021/05/28 12:21:10;;;;;;;4.38;2.10;;;;;;;;;;5014096;28;20070;-78
2021/05/28 12:23:36;;;;;;;6.10;2.22;;;;;;;;;;4997190;28;20041;-78
2021/05/28 12:26:07;;;;;;;5.07;2.15;;;;;;;;;;5001166;28;20049;-78
2021/05/28 12:28:39;;;;;;;6.35;2.22;;;;;;;;;;4993815;28;20109;-79
2021/05/28 12:31:11;;;;;;;4.57;2.38;;;;;;;;;;4977040;28;20030;-79
2021/05/28 12:33:41;;;;;;;5.53;2.50;;;;;;;;;;4994236;28;20074;-79
2021/05/28 12:36:08;;;;;;;4.40;3.13;;;;;;;;;;4993575;28;20045;-78
2021/05/28 12:38:35;;;;;;;6.05;2.40;;;;;;;;;;4993741;28;20089;-78
2021/05/28 12:41:01;;;;;;;4.35;2.22;;;;;;;;;;4993305;28;20041;-78
2021/05/28 12:43:28;;;;;;;6.50;2.50;;;;;;;;;;4992361;28;20030;-79
2021/05/28 12:45:54;;;;;;;3.97;2.22;;;;;;;;;;5009691;28;20506;-79
2021/05/28 12:48:20;;;;;;;5.35;2.60;;;;;;;;;;5009369;28;20472;-79
2021/05/28 12:50:47;;;;;;;5.82;2.85;;;;;;;;;;4992681;28;20044;-79
2021/05/28 12:53:17;;;;;;;4.20;2.22;;;;;;;;;;4992957;28;20125;-79
2021/05/28 12:55:54;;;;;;;7.25;4.72;;;;;;;;;;5025953;28;20052;-79
2021/05/28 12:58:25;;;;;;;7.85;3.65;;;;;;;;;;5024717;28;20026;-79
2021/05/28 13:01:04;;;;;;;5.13;2.58;;;;;;;;;;5024897;28;20030;-79
2021/05/28 13:03:41;;;;;;;6.32;2.92;;;;;;;;;;5025608;28;20109;-78
2021/05/28 13:06:29;;;;;;;6.03;2.33;;;;;;;;;;5009145;28;20496;-78
2021/05/28 13:09:20;;;;;;;5.78;2.85;;;;;;;;;;5025943;28;20034;-79
2021/05/28 13:11:48;;;;;;;5.05;2.58;;;;;;;;;;5022499;28;20493;-79
2021/05/28 13:14:40;;;;;;;6.07;3.75;;;;;;;;;;5024820;28;20044;-78
2021/05/28 13:17:22;;;;;;;4.60;2.60;;;;;;;;;;5025080;28;20031;-78
2021/05/28 13:19:52;;;;;;;7.00;2.77;;;;;;;;;;5025203;28;20080;-79
2021/05/28 13:22:37;;;;;;;5.57;2.88;;;;;;;;;;5025543;28;20124;-79
2021/05/28 13:25:19;;;;;;;5.32;3.05;;;;;;;;;;5007709;28;20489;-79
2021/05/28 13:27:46;;;;;;;4.95;2.53;;;;;;;;;;5008433;28;20052;-78
2021/05/28 13:30:12;;;;;;;4.65;2.65;;;;;;;;;;5008588;28;20093;-81
2021/05/28 13:32:39;;;;;;;3.88;2.70;;;;;;;;;;5008342;28;20441;-79
2021/05/28 13:35:14;;;;;;;4.53;2.95;;;;;;;;;;4992248;28;20037;-80
2021/05/28 13:37:39;;;;;;;4.55;2.92;;;;;;;;;;4992855;28;20034;-78
2021/05/28 13:40:06;;;;;;;3.63;2.63;;;;;;;;;;5008427;28;20427;-76
2021/05/28 13:42:31;;;;;;;9.75;3.10;;;;;;;;;;4992313;28;20049;-79
2021/05/28 13:44:57;;;;;;;7.65;2.97;;;;;;;;;;4988380;28;20525;-78
2021/05/28 13:47:23;;;;;;;10.13;4.00;;;;;;;;;;4972456;28;20042;-79
2021/05/28 13:49:49;;;;;;;6.47;3.00;;;;;;;;;;4971318;28;20110;-78
2021/05/28 13:52:15;;;;;;;4.32;2.65;;;;;;;;;;4972644;28;20040;-79
2021/05/28 13:54:41;;;;;;;4.90;2.90;;;;;;;;;;4961501;28;20069;-79
2021/05/28 13:57:07;;;;;;;5.15;3.50;;;;;;;;;;4959972;28;20048;-79
2021/05/28 13:59:32;;;;;;;4.30;2.90;;;;;;;;;;5006176;28;20126;-80
2021/05/28 14:01:58;;;;;;;4.20;2.72;;;;;;;;;;4975481;28;20509;-79
2021/05/28 14:04:23;;;;;;;3.67;2.75;;;;;;;;;;5024399;28;20030;-79
2021/05/28 14:06:49;;;;;;;6.80;2.85;;;;;;;;;;5007753;28;20369;-79
2021/05/28 14:09:14;;;;;;;4.60;2.28;;;;;;;;;;5023056;28;20038;-78
2021/05/28 14:11:40;;;;;;;7.30;2.75;;;;;;;;;;4991901;28;20034;-79
2021/05/28 14:14:05;;;;;;;5.50;2.40;;;;;;;;;;4959305;28;20022;-79
2021/05/28 14:16:31;;;;;;;5.10;3.05;;;;;;;;;;4975643;28;20030;-79
2021/05/28 14:18:56;;;;;;;5.00;2.97;;;;;;;;;;4975333;28;20062;-78
2021/05/28 14:21:22;;;;;;;7.40;2.50;;;;;;;;;;4975346;28;20034;-79
2021/05/28 14:23:47;;;;;;;5.35;2.58;;;;;;;;;;4974712;28;20045;-79
2021/05/28 14:26:13;;;;;;;5.03;2.70;;;;;;;;;;4975646;28;20030;-79
2021/05/28 14:28:38;;;;;;;5.00;2.25;;;;;;;;;;5023890;28;20500;-79
2021/05/28 14:31:04;;;;;;;5.15;2.40;;;;;;;;;;5007530;28;20496;-78
2021/05/28 14:33:51;;;;;;;5.30;2.35;;;;;;;;;;5007291;28;20061;-78
2021/05/28 14:36:22;;;;;;;4.30;2.10;;;;;;;;;;5003904;28;20034;-78
2021/05/28 14:38:53;;;;;;;3.40;2.00;;;;;;;;;;5006344;28;20113;-78
2021/05/28 14:41:19;;;;;;;4.30;2.40;;;;;;;;;;5007503;28;20030;-78
2021/05/28 14:43:45;;;;;;;3.20;2.47;;;;;;;;;;5005913;28;20053;-78
2021/05/28 14:46:15;;;;;;;4.45;2.13;;;;;;;;;;4990997;28;20026;-79
2021/05/28 14:48:41;;;;;;;4.20;2.00;;;;;;;;;;5004340;28;20026;-79
2021/05/28 14:51:06;;;;;;;5.18;2.10;;;;;;;;;;5004478;28;20037;-79